sensor_id;sensor_type;location;lat;lon;timestamp;P1;durP1;ratioP1;P2;durP2;ratioP2
62435;SDS011;48480;50.252;18.848;2022-07-24T00:00:56;14.80;;;13.40;;
62435;SDS011;48480;50.252;18.848;2022-07-24T00:03:23;15.80;;;14.20;;
62435;SDS011;48480;50.252;18.848;2022-07-24T00:05:50;15.90;;;14.30;;
62435;SDS011;48480;50.252;18.848;2022-07-24T00:08:16;16.20;;;14.60;;
62435;SDS011;48480;50.252;18.848;2022-07-24T00:10:43;16.20;;;14.60;;
62435;SDS011;48480;50.252;18.848;2022-07-24T00:13:09;15.60;;;13.90;;
62435;SDS011;48480;50.252;18.848;2022-07-24T00:15:36;16.00;;;14.50;;
62435;SDS011;48480;50.252;18.848;2022-07-24T00:18:02;16.10;;;14.60;;
62435;SDS011;48480;50.252;18.848;2022-07-24T00:20:29;17.00;;;14.50;;
62435;SDS011;48480;50.252;18.848;2022-07-24T00:22:55;16.80;;;15.10;;
62435;SDS011;48480;50.252;18.848;2022-07-24T00:25:22;15.80;;;14.20;;
62435;SDS011;48480;50.252;18.848;2022-07-24T00:27:48;16.60;;;14.90;;
62435;SDS011;48480;50.252;18.848;2022-07-24T00:30:15;17.00;;;15.20;;
62435;SDS011;48480;50.252;18.848;2022-07-24T00:32:41;16.40;;;14.70;;
62435;SDS011;48480;50.252;18.848;2022-07-24T00:35:08;17.10;;;14.90;;
62435;SDS011;48480;50.252;18.848;2022-07-24T00:37:34;16.70;;;15.00;;
62435;SDS011;48480;50.252;18.848;2022-07-24T00:40:01;17.10;;;15.30;;
62435;SDS011;48480;50.252;18.848;2022-07-24T00:42:27;16.90;;;15.20;;
62435;SDS011;48480;50.252;18.848;2022-07-24T00:44:55;15.60;;;14.10;;
62435;SDS011;48480;50.252;18.848;2022-07-24T00:47:22;18.00;;;16.20;;
62435;SDS011;48480;50.252;18.848;2022-07-24T00:49:48;16.70;;;15.10;;
62435;SDS011;48480;50.252;18.848;2022-07-24T00:52:15;17.80;;;16.00;;
62435;SDS011;48480;50.252;18.848;2022-07-24T00:54:41;17.20;;;15.40;;
62435;SDS011;48480;50.252;18.848;2022-07-24T00:57:08;17.70;;;15.90;;
62435;SDS011;48480;50.252;18.848;2022-07-24T00:59:34;18.10;;;16.40;;
62435;SDS011;48480;50.252;18.848;2022-07-24T01:02:01;17.70;;;16.00;;
62435;SDS011;48480;50.252;18.848;2022-07-24T01:04:27;18.10;;;16.20;;
62435;SDS011;48480;50.252;18.848;2022-07-24T01:06:54;18.40;;;16.60;;
62435;SDS011;48480;50.252;18.848;2022-07-24T01:09:21;18.40;;;16.60;;
62435;SDS011;48480;50.252;18.848;2022-07-24T01:11:47;17.90;;;16.10;;
62435;SDS011;48480;50.252;18.848;2022-07-24T01:14:14;19.20;;;17.30;;
62435;SDS011;48480;50.252;18.848;2022-07-24T01:16:41;18.40;;;16.00;;
62435;SDS011;48480;50.252;18.848;2022-07-24T01:19:07;19.40;;;17.10;;
62435;SDS011;48480;50.252;18.848;2022-07-24T01:21:34;19.00;;;17.20;;
62435;SDS011;48480;50.252;18.848;2022-07-24T01:24:00;19.20;;;17.10;;
62435;SDS011;48480;50.252;18.848;2022-07-24T01:26:27;18.50;;;16.60;;
62435;SDS011;48480;50.252;18.848;2022-07-24T01:28:53;18.80;;;16.90;;
62435;SDS011;48480;50.252;18.848;2022-07-24T01:31:20;18.70;;;16.70;;
62435;SDS011;48480;50.252;18.848;2022-07-24T01:33:47;19.60;;;16.90;;
62435;SDS011;48480;50.252;18.848;2022-07-24T01:36:13;18.70;;;16.90;;
62435;SDS011;48480;50.252;18.848;2022-07-24T01:38:40;18.50;;;16.60;;
62435;SDS011;48480;50.252;18.848;2022-07-24T01:41:07;18.00;;;16.20;;
62435;SDS011;48480;50.252;18.848;2022-07-24T01:43:33;19.30;;;17.40;;
62435;SDS011;48480;50.252;18.848;2022-07-24T01:46:00;18.30;;;16.50;;
62435;SDS011;48480;50.252;18.848;2022-07-24T01:48:26;16.20;;;14.60;;
62435;SDS011;48480;50.252;18.848;2022-07-24T01:50:53;17.20;;;15.10;;
62435;SDS011;48480;50.252;18.848;2022-07-24T01:53:19;17.40;;;15.60;;
62435;SDS011;48480;50.252;18.848;2022-07-24T01:55:46;17.20;;;15.40;;
62435;SDS011;48480;50.252;18.848;2022-07-24T01:58:15;17.30;;;15.20;;
62435;SDS011;48480;50.252;18.848;2022-07-24T02:00:42;15.20;;;13.60;;
62435;SDS011;48480;50.252;18.848;2022-07-24T02:03:09;15.90;;;14.40;;
62435;SDS011;48480;50.252;18.848;2022-07-24T02:05:35;16.20;;;14.60;;
62435;SDS011;48480;50.252;18.848;2022-07-24T02:08:02;15.70;;;14.10;;
62435;SDS011;48480;50.252;18.848;2022-07-24T02:10:28;16.20;;;14.60;;
62435;SDS011;48480;50.252;18.848;2022-07-24T02:12:55;15.60;;;13.90;;
62435;SDS011;48480;50.252;18.848;2022-07-24T02:15:22;14.30;;;12.80;;
62435;SDS011;48480;50.252;18.848;2022-07-24T02:17:50;14.90;;;12.90;;
62435;SDS011;48480;50.252;18.848;2022-07-24T02:20:19;14.20;;;12.80;;
62435;SDS011;48480;50.252;18.848;2022-07-24T02:22:46;12.60;;;11.30;;
62435;SDS011;48480;50.252;18.848;2022-07-24T02:25:13;11.70;;;10.60;;
62435;SDS011;48480;50.252;18.848;2022-07-24T02:27:40;12.90;;;11.10;;
62435;SDS011;48480;50.252;18.848;2022-07-24T02:30:11;12.70;;;11.20;;
62435;SDS011;48480;50.252;18.848;2022-07-24T02:32:42;11.40;;;10.20;;
62435;SDS011;48480;50.252;18.848;2022-07-24T02:35:10;12.80;;;10.50;;
62435;SDS011;48480;50.252;18.848;2022-07-24T02:37:37;12.70;;;10.20;;
62435;SDS011;48480;50.252;18.848;2022-07-24T02:40:05;14.20;;;11.50;;
62435;SDS011;48480;50.252;18.848;2022-07-24T02:42:34;13.20;;;10.70;;
62435;SDS011;48480;50.252;18.848;2022-07-24T02:45:01;13.50;;;11.60;;
62435;SDS011;48480;50.252;18.848;2022-07-24T02:47:28;18.10;;;16.30;;
62435;SDS011;48480;50.252;18.848;2022-07-24T02:49:55;20.80;;;18.30;;
62435;SDS011;48480;50.252;18.848;2022-07-24T02:52:21;26.20;;;23.40;;
62435;SDS011;48480;50.252;18.848;2022-07-24T02:54:47;22.70;;;20.40;;
62435;SDS011;48480;50.252;18.848;2022-07-24T02:57:14;26.90;;;24.30;;
62435;SDS011;48480;50.252;18.848;2022-07-24T02:59:41;28.50;;;25.60;;
62435;SDS011;48480;50.252;18.848;2022-07-24T03:02:07;14.20;;;12.80;;
62435;SDS011;48480;50.252;18.848;2022-07-24T03:04:33;11.90;;;10.70;;
62435;SDS011;48480;50.252;18.848;2022-07-24T03:07:00;11.50;;;10.30;;
62435;SDS011;48480;50.252;18.848;2022-07-24T03:09:26;11.00;;;9.90;;
62435;SDS011;48480;50.252;18.848;2022-07-24T03:11:53;11.50;;;10.00;;
62435;SDS011;48480;50.252;18.848;2022-07-24T03:14:19;10.90;;;9.50;;
62435;SDS011;48480;50.252;18.848;2022-07-24T03:16:45;12.90;;;9.20;;
62435;SDS011;48480;50.252;18.848;2022-07-24T03:19:12;11.30;;;9.20;;
62435;SDS011;48480;50.252;18.848;2022-07-24T03:21:38;10.20;;;9.30;;
62435;SDS011;48480;50.252;18.848;2022-07-24T03:24:05;9.60;;;8.60;;
62435;SDS011;48480;50.252;18.848;2022-07-24T03:26:31;10.30;;;9.30;;
62435;SDS011;48480;50.252;18.848;2022-07-24T03:28:58;10.90;;;9.80;;
62435;SDS011;48480;50.252;18.848;2022-07-24T03:31:24;10.10;;;9.10;;
62435;SDS011;48480;50.252;18.848;2022-07-24T03:33:51;10.60;;;9.50;;
62435;SDS011;48480;50.252;18.848;2022-07-24T03:36:17;10.80;;;9.30;;
62435;SDS011;48480;50.252;18.848;2022-07-24T03:38:43;10.80;;;9.60;;
62435;SDS011;48480;50.252;18.848;2022-07-24T03:41:10;10.40;;;9.40;;
62435;SDS011;48480;50.252;18.848;2022-07-24T03:43:36;11.00;;;9.70;;
62435;SDS011;48480;50.252;18.848;2022-07-24T03:46:03;12.20;;;9.60;;
62435;SDS011;48480;50.252;18.848;2022-07-24T03:48:29;10.10;;;9.20;;
62435;SDS011;48480;50.252;18.848;2022-07-24T03:50:56;10.70;;;9.00;;
62435;SDS011;48480;50.252;18.848;2022-07-24T03:53:23;12.50;;;9.50;;
62435;SDS011;48480;50.252;18.848;2022-07-24T03:55:49;11.30;;;9.40;;
62435;SDS011;48480;50.252;18.848;2022-07-24T03:58:16;11.00;;;9.40;;
62435;SDS011;48480;50.252;18.848;2022-07-24T04:00:42;11.30;;;9.10;;
62435;SDS011;48480;50.252;18.848;2022-07-24T04:03:09;10.60;;;9.50;;
62435;SDS011;48480;50.252;18.848;2022-07-24T04:05:35;11.10;;;9.40;;
62435;SDS011;48480;50.252;18.848;2022-07-24T04:08:02;10.50;;;9.50;;
62435;SDS011;48480;50.252;18.848;2022-07-24T04:10:28;11.40;;;10.10;;
62435;SDS011;48480;50.252;18.848;2022-07-24T04:12:55;10.60;;;9.50;;
62435;SDS011;48480;50.252;18.848;2022-07-24T04:15:21;11.10;;;9.80;;
62435;SDS011;48480;50.252;18.848;2022-07-24T04:17:48;13.30;;;10.40;;
62435;SDS011;48480;50.252;18.848;2022-07-24T04:20:14;11.80;;;10.10;;
62435;SDS011;48480;50.252;18.848;2022-07-24T04:22:41;12.60;;;10.90;;
62435;SDS011;48480;50.252;18.848;2022-07-24T04:25:07;11.90;;;10.60;;
62435;SDS011;48480;50.252;18.848;2022-07-24T04:27:34;12.40;;;10.70;;
62435;SDS011;48480;50.252;18.848;2022-07-24T04:30:01;13.50;;;10.90;;
62435;SDS011;48480;50.252;18.848;2022-07-24T04:32:27;11.70;;;10.50;;
62435;SDS011;48480;50.252;18.848;2022-07-24T04:34:54;12.10;;;10.30;;
62435;SDS011;48480;50.252;18.848;2022-07-24T04:37:20;11.40;;;10.10;;
62435;SDS011;48480;50.252;18.848;2022-07-24T04:39:47;12.50;;;11.10;;
62435;SDS011;48480;50.252;18.848;2022-07-24T04:42:13;11.90;;;10.70;;
62435;SDS011;48480;50.252;18.848;2022-07-24T04:44:40;14.90;;;10.20;;
62435;SDS011;48480;50.252;18.848;2022-07-24T04:47:07;12.10;;;10.90;;
62435;SDS011;48480;50.252;18.848;2022-07-24T04:49:33;11.70;;;10.60;;
62435;SDS011;48480;50.252;18.848;2022-07-24T04:51:59;11.90;;;10.60;;
62435;SDS011;48480;50.252;18.848;2022-07-24T04:54:26;11.70;;;10.50;;
62435;SDS011;48480;50.252;18.848;2022-07-24T04:56:52;11.20;;;10.10;;
62435;SDS011;48480;50.252;18.848;2022-07-24T04:59:19;11.00;;;9.90;;
62435;SDS011;48480;50.252;18.848;2022-07-24T05:01:45;11.50;;;10.40;;
62435;SDS011;48480;50.252;18.848;2022-07-24T05:04:12;11.20;;;9.20;;
62435;SDS011;48480;50.252;18.848;2022-07-24T05:06:38;10.00;;;8.70;;
62435;SDS011;48480;50.252;18.848;2022-07-24T05:09:05;9.20;;;8.30;;
62435;SDS011;48480;50.252;18.848;2022-07-24T05:11:31;9.60;;;8.10;;
62435;SDS011;48480;50.252;18.848;2022-07-24T05:13:58;9.90;;;7.70;;
62435;SDS011;48480;50.252;18.848;2022-07-24T05:16:24;7.90;;;7.00;;
62435;SDS011;48480;50.252;18.848;2022-07-24T05:18:51;10.30;;;6.60;;
62435;SDS011;48480;50.252;18.848;2022-07-24T05:21:17;6.80;;;6.10;;
62435;SDS011;48480;50.252;18.848;2022-07-24T05:23:43;6.80;;;5.80;;
62435;SDS011;48480;50.252;18.848;2022-07-24T05:26:10;7.40;;;6.70;;
62435;SDS011;48480;50.252;18.848;2022-07-24T05:28:36;6.60;;;5.40;;
62435;SDS011;48480;50.252;18.848;2022-07-24T05:31:03;8.50;;;5.70;;
62435;SDS011;48480;50.252;18.848;2022-07-24T05:33:30;7.60;;;5.70;;
62435;SDS011;48480;50.252;18.848;2022-07-24T05:35:57;7.60;;;5.70;;
62435;SDS011;48480;50.252;18.848;2022-07-24T05:38:23;6.00;;;5.00;;
62435;SDS011;48480;50.252;18.848;2022-07-24T05:40:50;6.10;;;4.70;;
62435;SDS011;48480;50.252;18.848;2022-07-24T05:43:16;7.30;;;5.10;;
62435;SDS011;48480;50.252;18.848;2022-07-24T05:45:43;7.60;;;4.80;;
62435;SDS011;48480;50.252;18.848;2022-07-24T05:48:10;6.20;;;4.30;;
62435;SDS011;48480;50.252;18.848;2022-07-24T05:50:36;7.40;;;4.40;;
62435;SDS011;48480;50.252;18.848;2022-07-24T05:53:03;4.50;;;4.10;;
62435;SDS011;48480;50.252;18.848;2022-07-24T05:55:29;5.50;;;4.30;;
62435;SDS011;48480;50.252;18.848;2022-07-24T05:57:55;5.10;;;3.80;;
62435;SDS011;48480;50.252;18.848;2022-07-24T06:00:22;5.50;;;4.70;;
62435;SDS011;48480;50.252;18.848;2022-07-24T06:02:48;5.90;;;4.50;;
62435;SDS011;48480;50.252;18.848;2022-07-24T06:05:15;4.70;;;4.30;;
62435;SDS011;48480;50.252;18.848;2022-07-24T06:07:42;8.10;;;4.30;;
62435;SDS011;48480;50.252;18.848;2022-07-24T06:10:16;6.00;;;4.10;;
62435;SDS011;48480;50.252;18.848;2022-07-24T06:12:43;4.80;;;4.00;;
62435;SDS011;48480;50.252;18.848;2022-07-24T06:15:10;5.70;;;4.20;;
62435;SDS011;48480;50.252;18.848;2022-07-24T06:17:44;5.20;;;3.80;;
62435;SDS011;48480;50.252;18.848;2022-07-24T06:20:15;5.20;;;3.80;;
62435;SDS011;48480;50.252;18.848;2022-07-24T06:22:45;5.50;;;3.60;;
62435;SDS011;48480;50.252;18.848;2022-07-24T06:25:12;6.10;;;3.80;;
62435;SDS011;48480;50.252;18.848;2022-07-24T06:27:48;6.90;;;3.70;;
62435;SDS011;48480;50.252;18.848;2022-07-24T06:30:25;6.60;;;4.00;;
62435;SDS011;48480;50.252;18.848;2022-07-24T06:32:53;4.90;;;3.10;;
62435;SDS011;48480;50.252;18.848;2022-07-24T06:38:10;4.00;;;2.90;;
62435;SDS011;48480;50.252;18.848;2022-07-24T06:40:36;5.40;;;3.30;;
62435;SDS011;48480;50.252;18.848;2022-07-24T06:43:03;4.50;;;3.10;;
62435;SDS011;48480;50.252;18.848;2022-07-24T06:45:33;5.80;;;3.00;;
62435;SDS011;48480;50.252;18.848;2022-07-24T06:47:59;4.50;;;3.30;;
62435;SDS011;48480;50.252;18.848;2022-07-24T06:50:28;6.00;;;3.50;;
62435;SDS011;48480;50.252;18.848;2022-07-24T06:52:54;5.30;;;3.40;;
62435;SDS011;48480;50.252;18.848;2022-07-24T06:55:21;3.90;;;3.00;;
62435;SDS011;48480;50.252;18.848;2022-07-24T06:57:48;3.90;;;3.00;;
62435;SDS011;48480;50.252;18.848;2022-07-24T07:00:14;6.00;;;3.30;;
62435;SDS011;48480;50.252;18.848;2022-07-24T07:02:41;4.90;;;2.80;;
62435;SDS011;48480;50.252;18.848;2022-07-24T07:05:08;3.80;;;2.70;;
62435;SDS011;48480;50.252;18.848;2022-07-24T07:07:35;5.80;;;3.20;;
62435;SDS011;48480;50.252;18.848;2022-07-24T07:10:03;4.90;;;2.80;;
62435;SDS011;48480;50.252;18.848;2022-07-24T07:12:31;4.10;;;2.60;;
62435;SDS011;48480;50.252;18.848;2022-07-24T07:14:58;4.70;;;2.50;;
62435;SDS011;48480;50.252;18.848;2022-07-24T07:17:25;3.30;;;2.40;;
62435;SDS011;48480;50.252;18.848;2022-07-24T07:19:52;6.10;;;2.60;;
62435;SDS011;48480;50.252;18.848;2022-07-24T07:22:19;3.70;;;2.50;;
62435;SDS011;48480;50.252;18.848;2022-07-24T07:24:45;2.90;;;2.20;;
62435;SDS011;48480;50.252;18.848;2022-07-24T07:27:12;3.30;;;2.30;;
62435;SDS011;48480;50.252;18.848;2022-07-24T07:29:39;4.60;;;2.60;;
62435;SDS011;48480;50.252;18.848;2022-07-24T07:32:05;4.60;;;2.80;;
62435;SDS011;48480;50.252;18.848;2022-07-24T07:34:32;4.50;;;3.30;;
62435;SDS011;48480;50.252;18.848;2022-07-24T07:37:00;4.70;;;3.00;;
62435;SDS011;48480;50.252;18.848;2022-07-24T07:39:27;4.40;;;3.00;;
62435;SDS011;48480;50.252;18.848;2022-07-24T07:41:53;5.60;;;3.50;;
62435;SDS011;48480;50.252;18.848;2022-07-24T07:44:20;5.40;;;3.50;;
62435;SDS011;48480;50.252;18.848;2022-07-24T07:46:46;4.70;;;3.40;;
62435;SDS011;48480;50.252;18.848;2022-07-24T07:49:13;5.00;;;3.70;;
62435;SDS011;48480;50.252;18.848;2022-07-24T07:51:39;4.80;;;3.50;;
62435;SDS011;48480;50.252;18.848;2022-07-24T07:54:06;4.10;;;3.50;;
62435;SDS011;48480;50.252;18.848;2022-07-24T07:56:32;5.00;;;3.60;;
62435;SDS011;48480;50.252;18.848;2022-07-24T07:58:59;4.70;;;3.40;;
62435;SDS011;48480;50.252;18.848;2022-07-24T08:01:26;7.50;;;3.70;;
62435;SDS011;48480;50.252;18.848;2022-07-24T08:03:52;5.30;;;3.10;;
62435;SDS011;48480;50.252;18.848;2022-07-24T08:06:19;4.30;;;3.30;;
62435;SDS011;48480;50.252;18.848;2022-07-24T08:08:46;5.10;;;3.00;;
62435;SDS011;48480;50.252;18.848;2022-07-24T08:11:12;6.30;;;3.60;;
62435;SDS011;48480;50.252;18.848;2022-07-24T08:13:39;3.70;;;3.20;;
62435;SDS011;48480;50.252;18.848;2022-07-24T08:16:05;4.60;;;3.10;;
62435;SDS011;48480;50.252;18.848;2022-07-24T08:18:32;6.60;;;3.10;;
62435;SDS011;48480;50.252;18.848;2022-07-24T08:20:58;4.30;;;3.70;;
62435;SDS011;48480;50.252;18.848;2022-07-24T08:23:25;6.10;;;3.40;;
62435;SDS011;48480;50.252;18.848;2022-07-24T08:25:52;6.60;;;3.50;;
62435;SDS011;48480;50.252;18.848;2022-07-24T08:28:18;4.30;;;3.40;;
62435;SDS011;48480;50.252;18.848;2022-07-24T08:30:45;4.20;;;3.80;;
62435;SDS011;48480;50.252;18.848;2022-07-24T08:33:12;4.50;;;3.90;;
62435;SDS011;48480;50.252;18.848;2022-07-24T08:35:38;4.40;;;3.70;;
62435;SDS011;48480;50.252;18.848;2022-07-24T08:38:05;7.90;;;4.00;;
62435;SDS011;48480;50.252;18.848;2022-07-24T08:40:32;4.60;;;4.20;;
62435;SDS011;48480;50.252;18.848;2022-07-24T08:43:02;5.30;;;4.10;;
62435;SDS011;48480;50.252;18.848;2022-07-24T08:45:36;4.40;;;3.70;;
62435;SDS011;48480;50.252;18.848;2022-07-24T08:48:05;4.70;;;4.20;;
62435;SDS011;48480;50.252;18.848;2022-07-24T08:50:34;4.80;;;4.00;;
62435;SDS011;48480;50.252;18.848;2022-07-24T08:53:03;4.70;;;4.10;;
62435;SDS011;48480;50.252;18.848;2022-07-24T08:55:30;5.10;;;3.90;;
62435;SDS011;48480;50.252;18.848;2022-07-24T08:57:58;7.10;;;3.90;;
62435;SDS011;48480;50.252;18.848;2022-07-24T09:00:26;4.70;;;3.90;;
62435;SDS011;48480;50.252;18.848;2022-07-24T09:02:54;5.50;;;4.10;;
62435;SDS011;48480;50.252;18.848;2022-07-24T09:05:21;5.10;;;4.20;;
62435;SDS011;48480;50.252;18.848;2022-07-24T09:07:47;4.70;;;3.80;;
62435;SDS011;48480;50.252;18.848;2022-07-24T09:10:15;4.60;;;3.90;;
62435;SDS011;48480;50.252;18.848;2022-07-24T09:12:44;4.30;;;3.80;;
62435;SDS011;48480;50.252;18.848;2022-07-24T09:17:54;4.60;;;3.50;;
62435;SDS011;48480;50.252;18.848;2022-07-24T09:20:26;7.70;;;4.30;;
62435;SDS011;48480;50.252;18.848;2022-07-24T09:22:56;4.40;;;3.90;;
62435;SDS011;48480;50.252;18.848;2022-07-24T09:25:26;3.80;;;3.40;;
62435;SDS011;48480;50.252;18.848;2022-07-24T09:30:29;4.30;;;3.60;;
62435;SDS011;48480;50.252;18.848;2022-07-24T09:35:51;4.10;;;3.50;;
62435;SDS011;48480;50.252;18.848;2022-07-24T09:38:20;5.40;;;3.80;;
62435;SDS011;48480;50.252;18.848;2022-07-24T09:40:55;5.10;;;4.10;;
62435;SDS011;48480;50.252;18.848;2022-07-24T09:43:28;4.30;;;3.90;;
62435;SDS011;48480;50.252;18.848;2022-07-24T09:48:34;3.90;;;3.50;;
62435;SDS011;48480;50.252;18.848;2022-07-24T09:51:02;5.30;;;3.80;;
62435;SDS011;48480;50.252;18.848;2022-07-24T09:53:34;4.00;;;3.60;;
62435;SDS011;48480;50.252;18.848;2022-07-24T09:58:36;4.60;;;3.40;;
62435;SDS011;48480;50.252;18.848;2022-07-24T10:01:05;4.40;;;3.30;;
62435;SDS011;48480;50.252;18.848;2022-07-24T10:03:35;4.90;;;3.30;;
62435;SDS011;48480;50.252;18.848;2022-07-24T10:06:08;4.90;;;3.10;;
62435;SDS011;48480;50.252;18.848;2022-07-24T10:08:37;5.90;;;3.60;;
62435;SDS011;48480;50.252;18.848;2022-07-24T10:11:06;4.90;;;3.50;;
62435;SDS011;48480;50.252;18.848;2022-07-24T10:13:33;3.80;;;3.30;;
62435;SDS011;48480;50.252;18.848;2022-07-24T10:18:50;3.10;;;2.70;;
62435;SDS011;48480;50.252;18.848;2022-07-24T10:21:21;3.80;;;2.90;;
62435;SDS011;48480;50.252;18.848;2022-07-24T10:26:59;3.60;;;2.80;;
62435;SDS011;48480;50.252;18.848;2022-07-24T10:29:17;3.70;;;3.10;;
62435;SDS011;48480;50.252;18.848;2022-07-24T10:31:55;5.00;;;3.00;;
62435;SDS011;48480;50.252;18.848;2022-07-24T10:34:33;4.10;;;2.90;;
62435;SDS011;48480;50.252;18.848;2022-07-24T10:37:26;3.90;;;3.00;;
62435;SDS011;48480;50.252;18.848;2022-07-24T10:40:07;4.40;;;2.90;;
62435;SDS011;48480;50.252;18.848;2022-07-24T10:45:32;3.20;;;2.90;;
62435;SDS011;48480;50.252;18.848;2022-07-24T11:01:43;3.30;;;2.70;;
62435;SDS011;48480;50.252;18.848;2022-07-24T11:06:47;4.40;;;2.50;;
62435;SDS011;48480;50.252;18.848;2022-07-24T11:09:24;4.40;;;2.90;;
62435;SDS011;48480;50.252;18.848;2022-07-24T11:14:22;5.00;;;2.60;;
62435;SDS011;48480;50.252;18.848;2022-07-24T11:16:50;4.70;;;2.80;;
62435;SDS011;48480;50.252;18.848;2022-07-24T11:21:44;3.60;;;2.20;;
62435;SDS011;48480;50.252;18.848;2022-07-24T11:26:40;2.90;;;2.60;;
62435;SDS011;48480;50.252;18.848;2022-07-24T11:31:51;3.70;;;2.10;;
62435;SDS011;48480;50.252;18.848;2022-07-24T11:34:21;4.00;;;3.60;;
62435;SDS011;48480;50.252;18.848;2022-07-24T11:36:49;4.60;;;2.90;;
62435;SDS011;48480;50.252;18.848;2022-07-24T11:39:18;4.60;;;3.30;;
62435;SDS011;48480;50.252;18.848;2022-07-24T11:41:53;3.00;;;2.50;;
62435;SDS011;48480;50.252;18.848;2022-07-24T11:44:25;4.90;;;3.40;;
62435;SDS011;48480;50.252;18.848;2022-07-24T11:46:55;3.10;;;2.30;;
62435;SDS011;48480;50.252;18.848;2022-07-24T11:49:24;3.10;;;2.20;;
62435;SDS011;48480;50.252;18.848;2022-07-24T11:51:53;3.00;;;2.10;;
62435;SDS011;48480;50.252;18.848;2022-07-24T11:54:25;3.60;;;2.20;;
62435;SDS011;48480;50.252;18.848;2022-07-24T11:56:54;3.50;;;2.00;;
62435;SDS011;48480;50.252;18.848;2022-07-24T11:59:23;4.20;;;2.50;;
62435;SDS011;48480;50.252;18.848;2022-07-24T12:02:10;2.60;;;2.10;;
62435;SDS011;48480;50.252;18.848;2022-07-24T12:04:38;2.80;;;2.40;;
62435;SDS011;48480;50.252;18.848;2022-07-24T12:07:06;3.80;;;2.30;;
62435;SDS011;48480;50.252;18.848;2022-07-24T12:12:32;20.10;;;18.10;;
62435;SDS011;48480;50.252;18.848;2022-07-24T12:17:35;4.50;;;2.50;;
62435;SDS011;48480;50.252;18.848;2022-07-24T12:20:21;3.70;;;2.30;;
62435;SDS011;48480;50.252;18.848;2022-07-24T12:23:03;2.70;;;2.00;;
62435;SDS011;48480;50.252;18.848;2022-07-24T12:25:32;3.90;;;1.90;;
62435;SDS011;48480;50.252;18.848;2022-07-24T12:28:02;2.70;;;2.00;;
62435;SDS011;48480;50.252;18.848;2022-07-24T12:30:35;2.50;;;1.80;;
62435;SDS011;48480;50.252;18.848;2022-07-24T12:38:31;2.70;;;1.90;;
62435;SDS011;48480;50.252;18.848;2022-07-24T12:41:04;3.70;;;1.80;;
62435;SDS011;48480;50.252;18.848;2022-07-24T12:43:31;3.20;;;1.90;;
62435;SDS011;48480;50.252;18.848;2022-07-24T12:46:05;2.40;;;1.70;;
62435;SDS011;48480;50.252;18.848;2022-07-24T12:48:33;2.80;;;1.90;;
62435;SDS011;48480;50.252;18.848;2022-07-24T12:51:01;3.90;;;1.80;;
62435;SDS011;48480;50.252;18.848;2022-07-24T12:53:34;1.80;;;1.50;;
62435;SDS011;48480;50.252;18.848;2022-07-24T12:56:32;1.80;;;1.20;;
62435;SDS011;48480;50.252;18.848;2022-07-24T12:58:57;2.90;;;1.60;;
62435;SDS011;48480;50.252;18.848;2022-07-24T13:01:29;2.40;;;1.70;;
62435;SDS011;48480;50.252;18.848;2022-07-24T13:04:17;2.70;;;1.80;;
62435;SDS011;48480;50.252;18.848;2022-07-24T13:06:47;3.30;;;1.60;;
62435;SDS011;48480;50.252;18.848;2022-07-24T13:09:16;1.80;;;1.30;;
62435;SDS011;48480;50.252;18.848;2022-07-24T13:11:44;2.40;;;1.30;;
62435;SDS011;48480;50.252;18.848;2022-07-24T13:14:12;2.00;;;1.30;;
62435;SDS011;48480;50.252;18.848;2022-07-24T13:16:41;2.20;;;1.30;;
62435;SDS011;48480;50.252;18.848;2022-07-24T13:19:10;2.10;;;1.50;;
62435;SDS011;48480;50.252;18.848;2022-07-24T13:21:37;3.10;;;1.50;;
62435;SDS011;48480;50.252;18.848;2022-07-24T13:24:05;3.20;;;1.30;;
62435;SDS011;48480;50.252;18.848;2022-07-24T13:26:33;2.60;;;1.30;;
62435;SDS011;48480;50.252;18.848;2022-07-24T13:29:00;1.70;;;1.20;;
62435;SDS011;48480;50.252;18.848;2022-07-24T13:31:27;3.10;;;1.40;;
62435;SDS011;48480;50.252;18.848;2022-07-24T13:33:54;2.30;;;1.40;;
62435;SDS011;48480;50.252;18.848;2022-07-24T13:36:20;2.20;;;1.40;;
62435;SDS011;48480;50.252;18.848;2022-07-24T13:38:47;2.60;;;1.50;;
62435;SDS011;48480;50.252;18.848;2022-07-24T13:41:14;1.60;;;1.20;;
62435;SDS011;48480;50.252;18.848;2022-07-24T13:43:44;2.50;;;1.20;;
62435;SDS011;48480;50.252;18.848;2022-07-24T13:46:12;2.60;;;1.40;;
62435;SDS011;48480;50.252;18.848;2022-07-24T13:48:40;2.60;;;1.50;;
62435;SDS011;48480;50.252;18.848;2022-07-24T13:51:07;4.10;;;1.50;;
62435;SDS011;48480;50.252;18.848;2022-07-24T13:53:34;2.30;;;1.40;;
62435;SDS011;48480;50.252;18.848;2022-07-24T13:56:06;3.30;;;1.40;;
62435;SDS011;48480;50.252;18.848;2022-07-24T13:58:34;2.80;;;1.30;;
62435;SDS011;48480;50.252;18.848;2022-07-24T14:01:03;2.30;;;1.40;;
62435;SDS011;48480;50.252;18.848;2022-07-24T14:03:31;3.20;;;1.60;;
62435;SDS011;48480;50.252;18.848;2022-07-24T14:05:59;2.00;;;1.30;;
62435;SDS011;48480;50.252;18.848;2022-07-24T14:08:27;2.10;;;1.30;;
62435;SDS011;48480;50.252;18.848;2022-07-24T14:10:55;1.60;;;1.20;;
62435;SDS011;48480;50.252;18.848;2022-07-24T14:13:22;3.90;;;1.10;;
62435;SDS011;48480;50.252;18.848;2022-07-24T14:15:49;1.90;;;1.30;;
62435;SDS011;48480;50.252;18.848;2022-07-24T14:18:15;2.90;;;1.40;;
62435;SDS011;48480;50.252;18.848;2022-07-24T14:20:42;2.60;;;1.40;;
62435;SDS011;48480;50.252;18.848;2022-07-24T14:23:09;1.90;;;1.40;;
62435;SDS011;48480;50.252;18.848;2022-07-24T14:25:36;4.30;;;1.40;;
62435;SDS011;48480;50.252;18.848;2022-07-24T14:28:03;2.60;;;1.50;;
62435;SDS011;48480;50.252;18.848;2022-07-24T14:30:30;2.30;;;1.50;;
62435;SDS011;48480;50.252;18.848;2022-07-24T14:32:58;1.40;;;1.20;;
62435;SDS011;48480;50.252;18.848;2022-07-24T14:35:24;2.30;;;1.20;;
62435;SDS011;48480;50.252;18.848;2022-07-24T14:37:58;3.00;;;1.20;;
62435;SDS011;48480;50.252;18.848;2022-07-24T14:40:25;4.10;;;1.20;;
62435;SDS011;48480;50.252;18.848;2022-07-24T14:42:52;2.70;;;1.20;;
62435;SDS011;48480;50.252;18.848;2022-07-24T14:45:18;1.70;;;1.00;;
62435;SDS011;48480;50.252;18.848;2022-07-24T14:47:45;2.50;;;1.20;;
62435;SDS011;48480;50.252;18.848;2022-07-24T14:50:12;2.20;;;1.30;;
62435;SDS011;48480;50.252;18.848;2022-07-24T14:52:42;2.60;;;1.20;;
62435;SDS011;48480;50.252;18.848;2022-07-24T14:55:09;1.60;;;1.20;;
62435;SDS011;48480;50.252;18.848;2022-07-24T14:57:36;1.90;;;1.40;;
62435;SDS011;48480;50.252;18.848;2022-07-24T15:00:03;1.60;;;1.20;;
62435;SDS011;48480;50.252;18.848;2022-07-24T15:02:31;1.40;;;1.10;;
62435;SDS011;48480;50.252;18.848;2022-07-24T15:04:58;2.00;;;1.20;;
62435;SDS011;48480;50.252;18.848;2022-07-24T15:07:25;1.30;;;1.10;;
62435;SDS011;48480;50.252;18.848;2022-07-24T15:09:52;1.80;;;1.30;;
62435;SDS011;48480;50.252;18.848;2022-07-24T15:12:18;2.20;;;1.40;;
62435;SDS011;48480;50.252;18.848;2022-07-24T15:14:47;3.40;;;1.30;;
62435;SDS011;48480;50.252;18.848;2022-07-24T15:17:14;1.90;;;1.40;;
62435;SDS011;48480;50.252;18.848;2022-07-24T15:19:40;1.50;;;1.20;;
62435;SDS011;48480;50.252;18.848;2022-07-24T15:22:07;1.40;;;1.10;;
62435;SDS011;48480;50.252;18.848;2022-07-24T15:24:33;1.50;;;1.10;;
62435;SDS011;48480;50.252;18.848;2022-07-24T15:27:00;2.50;;;1.20;;
62435;SDS011;48480;50.252;18.848;2022-07-24T15:29:27;3.90;;;1.20;;
62435;SDS011;48480;50.252;18.848;2022-07-24T15:31:53;2.60;;;1.10;;